sensor_id;sensor_type;location;lat;lon;timestamp;pressure;altitude;pressure_sealevel;temperature;humidity
13767;BME280;47980;48.794;9.176;2023-08-20T00:00:40;98552.53;;;24.45;98.86
13767;BME280;47980;48.794;9.176;2023-08-20T00:03:13;98558.72;;;24.45;99.13
13767;BME280;47980;48.794;9.176;2023-08-20T00:05:45;98553.22;;;24.53;97.98
13767;BME280;47980;48.794;9.176;2023-08-20T00:08:17;98557.84;;;24.56;97.89
13767;BME280;47980;48.794;9.176;2023-08-20T00:10:48;98557.78;;;24.59;97.97
13767;BME280;47980;48.794;9.176;2023-08-20T00:13:20;98562.38;;;24.66;97.25
13767;BME280;47980;48.794;9.176;2023-08-20T00:15:51;98564.94;;;24.77;96.43
13767;BME280;47980;48.794;9.176;2023-08-20T00:18:25;98571.53;;;24.76;96.83
13767;BME280;47980;48.794;9.176;2023-08-20T00:20:58;98568.72;;;24.83;96.92
13767;BME280;47980;48.794;9.176;2023-08-20T00:23:30;98567.19;;;24.82;96.44
13767;BME280;47980;48.794;9.176;2023-08-20T00:26:02;98568.09;;;24.71;96.62
13767;BME280;47980;48.794;9.176;2023-08-20T00:28:34;98574.63;;;24.78;97.24
13767;BME280;47980;48.794;9.176;2023-08-20T00:31:08;98579.19;;;24.84;97.01
13767;BME280;47980;48.794;9.176;2023-08-20T00:33:41;98573.38;;;24.82;96.61
13767;BME280;47980;48.794;9.176;2023-08-20T00:36:13;98573.47;;;24.75;97.94
13767;BME280;47980;48.794;9.176;2023-08-20T00:38:45;98577.28;;;24.81;97.03
13767;BME280;47980;48.794;9.176;2023-08-20T00:41:16;98576.50;;;24.81;97.22
13767;BME280;47980;48.794;9.176;2023-08-20T00:43:49;98576.56;;;24.77;97.61
13767;BME280;47980;48.794;9.176;2023-08-20T00:46:20;98577.81;;;24.69;98.33
13767;BME280;47980;48.794;9.176;2023-08-20T00:48:53;98574.13;;;24.56;98.35
13767;BME280;47980;48.794;9.176;2023-08-20T00:51:25;98573.41;;;24.52;99.47
13767;BME280;47980;48.794;9.176;2023-08-20T00:53:57;98576.91;;;24.48;99.13
13767;BME280;47980;48.794;9.176;2023-08-20T00:56:28;98573.81;;;24.46;99.30
13767;BME280;47980;48.794;9.176;2023-08-20T00:59:00;98568.44;;;24.43;99.45
13767;BME280;47980;48.794;9.176;2023-08-20T01:01:32;98572.38;;;24.35;100.00
13767;BME280;47980;48.794;9.176;2023-08-20T01:04:05;98571.19;;;24.36;99.70
13767;BME280;47980;48.794;9.176;2023-08-20T01:06:44;98576.38;;;24.26;100.00
13767;BME280;47980;48.794;9.176;2023-08-20T01:09:25;98574.03;;;24.25;100.00
13767;BME280;47980;48.794;9.176;2023-08-20T01:12:02;98575.19;;;24.27;100.00
13767;BME280;47980;48.794;9.176;2023-08-20T01:14:37;98569.34;;;24.29;99.78
13767;BME280;47980;48.794;9.176;2023-08-20T01:17:08;98580.94;;;24.33;100.00
13767;BME280;47980;48.794;9.176;2023-08-20T01:19:42;98575.50;;;24.33;100.00
13767;BME280;47980;48.794;9.176;2023-08-20T01:22:35;98579.38;;;24.32;99.89
13767;BME280;47980;48.794;9.176;2023-08-20T01:25:18;98584.03;;;24.32;99.95
13767;BME280;47980;48.794;9.176;2023-08-20T01:28:01;98587.94;;;24.31;100.00
13767;BME280;47980;48.794;9.176;2023-08-20T01:30:37;98589.53;;;24.24;100.00
13767;BME280;47980;48.794;9.176;2023-08-20T01:33:09;98582.59;;;24.23;100.00
13767;BME280;47980;48.794;9.176;2023-08-20T01:35:42;98587.56;;;24.29;99.83
13767;BME280;47980;48.794;9.176;2023-08-20T01:38:14;98588.34;;;24.25;100.00
13767;BME280;47980;48.794;9.176;2023-08-20T01:40:46;98583.34;;;24.24;100.00
13767;BME280;47980;48.794;9.176;2023-08-20T01:43:18;98585.41;;;24.13;100.00
13767;BME280;47980;48.794;9.176;2023-08-20T01:45:51;98588.94;;;24.10;100.00
13767;BME280;47980;48.794;9.176;2023-08-20T01:48:22;98594.03;;;24.04;100.00
13767;BME280;47980;48.794;9.176;2023-08-20T01:50:54;98591.81;;;23.92;100.00
13767;BME280;47980;48.794;9.176;2023-08-20T01:53:26;98585.25;;;23.89;100.00
13767;BME280;47980;48.794;9.176;2023-08-20T01:55:57;98590.34;;;23.84;100.00
13767;BME280;47980;48.794;9.176;2023-08-20T01:58:29;98588.41;;;23.84;100.00
13767;BME280;47980;48.794;9.176;2023-08-20T02:01:02;98594.97;;;23.87;100.00
13767;BME280;47980;48.794;9.176;2023-08-20T02:03:36;98591.84;;;23.88;100.00
13767;BME280;47980;48.794;9.176;2023-08-20T02:06:08;98597.66;;;23.87;100.00
13767;BME280;47980;48.794;9.176;2023-08-20T02:08:39;98590.31;;;23.87;100.00
13767;BME280;47980;48.794;9.176;2023-08-20T02:11:11;98588.81;;;23.83;100.00
13767;BME280;47980;48.794;9.176;2023-08-20T02:13:42;98593.09;;;23.80;100.00
13767;BME280;47980;48.794;9.176;2023-08-20T02:16:17;98595.53;;;23.60;100.00
13767;BME280;47980;48.794;9.176;2023-08-20T02:18:48;98597.81;;;23.65;100.00
13767;BME280;47980;48.794;9.176;2023-08-20T02:21:20;98601.72;;;23.68;100.00
13767;BME280;47980;48.794;9.176;2023-08-20T02:23:51;98599.44;;;23.55;100.00
13767;BME280;47980;48.794;9.176;2023-08-20T02:26:23;98595.56;;;23.57;100.00
13767;BME280;47980;48.794;9.176;2023-08-20T02:28:54;98597.50;;;23.56;100.00
13767;BME280;47980;48.794;9.176;2023-08-20T02:31:27;98594.78;;;23.56;100.00
13767;BME280;47980;48.794;9.176;2023-08-20T02:33:59;98592.97;;;23.42;100.00
13767;BME280;47980;48.794;9.176;2023-08-20T02:36:30;98597.56;;;23.45;100.00
13767;BME280;47980;48.794;9.176;2023-08-20T02:39:02;98599.94;;;23.43;100.00
13767;BME280;47980;48.794;9.176;2023-08-20T02:41:35;98595.31;;;23.37;100.00
13767;BME280;47980;48.794;9.176;2023-08-20T02:44:07;98599.25;;;23.32;100.00
13767;BME280;47980;48.794;9.176;2023-08-20T02:46:40;98605.78;;;23.35;100.00
13767;BME280;47980;48.794;9.176;2023-08-20T02:49:11;98601.94;;;23.32;100.00
13767;BME280;47980;48.794;9.176;2023-08-20T02:51:44;98600.81;;;23.26;100.00
13767;BME280;47980;48.794;9.176;2023-08-20T02:54:16;98601.59;;;23.23;100.00
13767;BME280;47980;48.794;9.176;2023-08-20T02:56:48;98600.06;;;23.22;100.00
13767;BME280;47980;48.794;9.176;2023-08-20T02:59:19;98598.19;;;23.15;100.00
13767;BME280;47980;48.794;9.176;2023-08-20T03:01:52;98591.22;;;23.18;100.00
13767;BME280;47980;48.794;9.176;2023-08-20T03:04:24;98590.78;;;23.19;100.00
13767;BME280;47980;48.794;9.176;2023-08-20T03:06:55;98585.44;;;23.09;100.00
13767;BME280;47980;48.794;9.176;2023-08-20T03:09:27;98576.59;;;23.01;100.00
13767;BME280;47980;48.794;9.176;2023-08-20T03:12:00;98578.50;;;23.08;100.00
13767;BME280;47980;48.794;9.176;2023-08-20T03:14:32;98573.84;;;23.08;100.00
13767;BME280;47980;48.794;9.176;2023-08-20T03:17:05;98577.38;;;23.01;100.00
13767;BME280;47980;48.794;9.176;2023-08-20T03:19:36;98578.47;;;23.11;100.00
13767;BME280;47980;48.794;9.176;2023-08-20T03:22:08;98574.25;;;23.06;100.00
13767;BME280;47980;48.794;9.176;2023-08-20T03:24:39;98575.84;;;23.00;100.00
13767;BME280;47980;48.794;9.176;2023-08-20T03:27:11;98581.25;;;23.00;100.00
13767;BME280;47980;48.794;9.176;2023-08-20T03:29:43;98585.88;;;23.03;100.00
13767;BME280;47980;48.794;9.176;2023-08-20T03:32:16;98593.25;;;22.99;100.00
13767;BME280;47980;48.794;9.176;2023-08-20T03:34:47;98587.06;;;23.02;100.00
13767;BME280;47980;48.794;9.176;2023-08-20T03:37:19;98589.38;;;22.97;100.00
13767;BME280;47980;48.794;9.176;2023-08-20T03:39:51;98581.69;;;22.95;100.00
13767;BME280;47980;48.794;9.176;2023-08-20T03:42:22;98582.03;;;22.90;100.00
13767;BME280;47980;48.794;9.176;2023-08-20T03:44:54;98579.75;;;22.89;100.00
13767;BME280;47980;48.794;9.176;2023-08-20T03:47:27;98579.75;;;22.89;100.00
13767;BME280;47980;48.794;9.176;2023-08-20T03:49:58;98579.03;;;22.81;100.00
13767;BME280;47980;48.794;9.176;2023-08-20T03:52:30;98587.53;;;22.72;100.00
13767;BME280;47980;48.794;9.176;2023-08-20T03:55:02;98578.28;;;22.77;100.00
13767;BME280;47980;48.794;9.176;2023-08-20T03:57:35;98586.41;;;22.70;100.00
13767;BME280;47980;48.794;9.176;2023-08-20T04:00:07;98579.84;;;22.71;100.00
13767;BME280;47980;48.794;9.176;2023-08-20T04:02:41;98576.63;;;22.90;100.00
13767;BME280;47980;48.794;9.176;2023-08-20T04:05:13;98580.84;;;23.02;100.00
13767;BME280;47980;48.794;9.176;2023-08-20T04:07:44;98586.59;;;23.11;100.00
13767;BME280;47980;48.794;9.176;2023-08-20T04:10:16;98592.41;;;23.10;100.00
13767;BME280;47980;48.794;9.176;2023-08-20T04:12:47;98596.00;;;22.92;100.00
13767;BME280;47980;48.794;9.176;2023-08-20T04:15:19;98605.28;;;22.84;100.00
13767;BME280;47980;48.794;9.176;2023-08-20T04:17:52;98602.13;;;23.00;100.00
13767;BME280;47980;48.794;9.176;2023-08-20T04:20:23;98594.88;;;22.79;100.00
13767;BME280;47980;48.794;9.176;2023-08-20T04:22:55;98594.06;;;22.86;100.00
13767;BME280;47980;48.794;9.176;2023-08-20T04:25:26;98596.41;;;22.80;100.00
13767;BME280;47980;48.794;9.176;2023-08-20T04:27:58;98593.72;;;22.73;100.00
13767;BME280;47980;48.794;9.176;2023-08-20T04:30:30;98599.53;;;22.75;100.00
13767;BME280;47980;48.794;9.176;2023-08-20T04:33:03;98602.66;;;22.70;100.00
13767;BME280;47980;48.794;9.176;2023-08-20T04:35:35;98603.75;;;22.76;100.00
13767;BME280;47980;48.794;9.176;2023-08-20T04:38:06;98608.00;;;22.80;100.00
13767;BME280;47980;48.794;9.176;2023-08-20T04:40:38;98606.09;;;22.77;100.00
13767;BME280;47980;48.794;9.176;2023-08-20T04:43:09;98611.50;;;22.77;100.00
13767;BME280;47980;48.794;9.176;2023-08-20T04:45:41;98615.34;;;22.76;100.00
13767;BME280;47980;48.794;9.176;2023-08-20T04:48:14;98622.31;;;22.81;100.00
13767;BME280;47980;48.794;9.176;2023-08-20T04:50:46;98619.59;;;22.92;100.00
13767;BME280;47980;48.794;9.176;2023-08-20T04:53:18;98623.06;;;22.92;100.00
13767;BME280;47980;48.794;9.176;2023-08-20T04:55:49;98630.75;;;22.97;100.00
13767;BME280;47980;48.794;9.176;2023-08-20T04:58:21;98632.25;;;23.05;100.00
13767;BME280;47980;48.794;9.176;2023-08-20T05:00:53;98630.28;;;23.17;100.00
13767;BME280;47980;48.794;9.176;2023-08-20T05:03:26;98631.06;;;23.14;100.00
13767;BME280;47980;48.794;9.176;2023-08-20T05:05:57;98630.16;;;23.31;100.00
13767;BME280;47980;48.794;9.176;2023-08-20T05:08:29;98628.16;;;23.46;100.00
13767;BME280;47980;48.794;9.176;2023-08-20T05:11:00;98631.97;;;23.52;100.00
13767;BME280;47980;48.794;9.176;2023-08-20T05:13:33;98630.91;;;23.39;100.00
13767;BME280;47980;48.794;9.176;2023-08-20T05:16:05;98634.00;;;23.37;100.00
13767;BME280;47980;48.794;9.176;2023-08-20T05:18:37;98620.69;;;23.68;100.00
13767;BME280;47980;48.794;9.176;2023-08-20T05:21:09;98595.41;;;23.78;100.00
13767;BME280;47980;48.794;9.176;2023-08-20T05:23:43;98601.25;;;23.76;100.00
13767;BME280;47980;48.794;9.176;2023-08-20T05:26:15;98600.09;;;23.74;99.45
13767;BME280;47980;48.794;9.176;2023-08-20T05:28:46;98609.69;;;23.86;98.36
13767;BME280;47980;48.794;9.176;2023-08-20T05:31:18;98625.91;;;23.89;97.88
13767;BME280;47980;48.794;9.176;2023-08-20T05:33:51;98631.16;;;24.07;98.03
13767;BME280;47980;48.794;9.176;2023-08-20T05:36:23;98628.94;;;23.98;97.28
13767;BME280;47980;48.794;9.176;2023-08-20T05:38:54;98622.56;;;24.16;97.67
13767;BME280;47980;48.794;9.176;2023-08-20T05:41:26;98627.06;;;23.88;97.02
13767;BME280;47980;48.794;9.176;2023-08-20T05:43:57;98636.63;;;24.03;96.70
13767;BME280;47980;48.794;9.176;2023-08-20T05:46:29;98638.94;;;24.05;95.31
13767;BME280;47980;48.794;9.176;2023-08-20T05:49:02;98637.91;;;24.33;94.94
13767;BME280;47980;48.794;9.176;2023-08-20T05:51:36;98638.28;;;24.32;96.09
13767;BME280;47980;48.794;9.176;2023-08-20T05:54:07;98636.75;;;24.68;93.92
13767;BME280;47980;48.794;9.176;2023-08-20T05:56:39;98649.63;;;24.61;92.67
13767;BME280;47980;48.794;9.176;2023-08-20T05:59:10;98639.25;;;24.86;91.84
13767;BME280;47980;48.794;9.176;2023-08-20T06:01:42;98639.19;;;24.90;91.26
13767;BME280;47980;48.794;9.176;2023-08-20T06:04:15;98645.53;;;25.14;89.65
13767;BME280;47980;48.794;9.176;2023-08-20T06:06:48;98646.22;;;25.45;89.28
13767;BME280;47980;48.794;9.176;2023-08-20T06:09:20;98652.69;;;25.55;87.03
13767;BME280;47980;48.794;9.176;2023-08-20T06:11:51;98652.19;;;25.36;88.09
13767;BME280;47980;48.794;9.176;2023-08-20T06:14:23;98659.75;;;25.76;85.44
13767;BME280;47980;48.794;9.176;2023-08-20T06:16:54;98657.19;;;26.15;84.23
13767;BME280;47980;48.794;9.176;2023-08-20T06:19:27;98655.41;;;26.05;84.10
13767;BME280;47980;48.794;9.176;2023-08-20T06:21:59;98655.13;;;26.43;81.63
13767;BME280;47980;48.794;9.176;2023-08-20T06:24:31;98651.28;;;26.40;83.22
13767;BME280;47980;48.794;9.176;2023-08-20T06:27:02;98659.53;;;26.37;79.94
13767;BME280;47980;48.794;9.176;2023-08-20T06:29:34;98666.75;;;26.24;81.86
13767;BME280;47980;48.794;9.176;2023-08-20T06:32:06;98666.34;;;25.78;86.27
13767;BME280;47980;48.794;9.176;2023-08-20T06:34:38;98663.78;;;26.38;82.72
13767;BME280;47980;48.794;9.176;2023-08-20T06:37:10;98665.19;;;26.46;81.91
13767;BME280;47980;48.794;9.176;2023-08-20T06:39:42;98660.22;;;26.41;81.82
13767;BME280;47980;48.794;9.176;2023-08-20T06:42:13;98662.63;;;26.59;81.26
13767;BME280;47980;48.794;9.176;2023-08-20T06:44:45;98668.75;;;27.03;78.88
13767;BME280;47980;48.794;9.176;2023-08-20T06:47:16;98670.31;;;27.40;76.23
13767;BME280;47980;48.794;9.176;2023-08-20T06:49:49;98662.56;;;27.55;75.39
13767;BME280;47980;48.794;9.176;2023-08-20T06:52:21;98662.88;;;27.04;77.63
13767;BME280;47980;48.794;9.176;2023-08-20T06:54:52;98656.69;;;27.24;78.29
13767;BME280;47980;48.794;9.176;2023-08-20T06:57:24;98662.09;;;27.60;76.67
13767;BME280;47980;48.794;9.176;2023-08-20T06:59:55;98665.28;;;27.75;74.97
13767;BME280;47980;48.794;9.176;2023-08-20T07:02:27;98664.38;;;27.45;74.79
13767;BME280;47980;48.794;9.176;2023-08-20T07:04:59;98674.47;;;27.97;73.90
13767;BME280;47980;48.794;9.176;2023-08-20T07:07:31;98670.63;;;27.78;75.35
13767;BME280;47980;48.794;9.176;2023-08-20T07:10:03;98678.06;;;27.78;75.47
13767;BME280;47980;48.794;9.176;2023-08-20T07:12:35;98677.22;;;28.26;72.85
13767;BME280;47980;48.794;9.176;2023-08-20T07:15:07;98677.00;;;27.72;74.98
13767;BME280;47980;48.794;9.176;2023-08-20T07:17:39;98665.78;;;27.86;74.59
13767;BME280;47980;48.794;9.176;2023-08-20T07:20:12;98676.03;;;27.62;76.03
13767;BME280;47980;48.794;9.176;2023-08-20T07:22:43;98672.66;;;27.74;76.48
13767;BME280;47980;48.794;9.176;2023-08-20T07:25:15;98683.19;;;27.56;77.80
13767;BME280;47980;48.794;9.176;2023-08-20T07:27:46;98690.88;;;28.26;73.98
13767;BME280;47980;48.794;9.176;2023-08-20T07:30:18;98688.22;;;28.39;72.13
13767;BME280;47980;48.794;9.176;2023-08-20T07:32:49;98688.09;;;28.59;71.36
13767;BME280;47980;48.794;9.176;2023-08-20T07:35:22;98698.13;;;28.33;72.78
13767;BME280;47980;48.794;9.176;2023-08-20T07:37:54;98694.50;;;28.82;70.48
13767;BME280;47980;48.794;9.176;2023-08-20T07:40:25;98690.31;;;29.06;71.04
13767;BME280;47980;48.794;9.176;2023-08-20T07:42:57;98706.84;;;28.86;71.63
13767;BME280;47980;48.794;9.176;2023-08-20T07:45:28;98703.91;;;28.81;70.41
13767;BME280;47980;48.794;9.176;2023-08-20T07:48:00;98704.03;;;28.61;72.27
13767;BME280;47980;48.794;9.176;2023-08-20T07:50:33;98704.88;;;28.12;74.48
13767;BME280;47980;48.794;9.176;2023-08-20T07:53:04;98704.56;;;27.94;74.59
13767;BME280;47980;48.794;9.176;2023-08-20T07:55:36;98711.13;;;27.96;76.04
13767;BME280;47980;48.794;9.176;2023-08-20T07:58:07;98703.91;;;28.35;74.39
13767;BME280;47980;48.794;9.176;2023-08-20T08:00:39;98706.09;;;28.11;73.54
13767;BME280;47980;48.794;9.176;2023-08-20T08:03:11;98710.56;;;28.34;73.77
13767;BME280;47980;48.794;9.176;2023-08-20T08:05:47;98710.31;;;28.74;72.27
13767;BME280;47980;48.794;9.176;2023-08-20T08:08:19;98706.41;;;29.30;70.27
13767;BME280;47980;48.794;9.176;2023-08-20T08:10:51;98707.97;;;29.56;66.38
13767;BME280;47980;48.794;9.176;2023-08-20T08:13:25;98710.97;;;29.07;67.71
13767;BME280;47980;48.794;9.176;2023-08-20T08:15:57;98714.09;;;29.47;67.15
13767;BME280;47980;48.794;9.176;2023-08-20T08:18:28;98718.31;;;29.10;68.02
13767;BME280;47980;48.794;9.176;2023-08-20T08:21:01;98714.16;;;28.76;68.23
13767;BME280;47980;48.794;9.176;2023-08-20T08:23:33;98714.28;;;29.15;67.39
13767;BME280;47980;48.794;9.176;2023-08-20T08:26:04;98727.22;;;29.27;68.95
13767;BME280;47980;48.794;9.176;2023-08-20T08:28:36;98721.66;;;29.56;67.18
13767;BME280;47980;48.794;9.176;2023-08-20T08:31:07;98723.03;;;29.22;69.68
13767;BME280;47980;48.794;9.176;2023-08-20T08:33:39;98714.53;;;29.46;67.60
13767;BME280;47980;48.794;9.176;2023-08-20T08:36:12;98725.47;;;29.46;67.91
13767;BME280;47980;48.794;9.176;2023-08-20T08:38:45;98716.31;;;29.65;66.97
13767;BME280;47980;48.794;9.176;2023-08-20T08:41:19;98721.75;;;30.04;67.04
13767;BME280;47980;48.794;9.176;2023-08-20T08:43:53;98716.81;;;29.98;66.48
13767;BME280;47980;48.794;9.176;2023-08-20T08:46:27;98709.16;;;30.19;65.85
13767;BME280;47980;48.794;9.176;2023-08-20T08:48:59;98713.19;;;30.14;65.88
13767;BME280;47980;48.794;9.176;2023-08-20T08:51:33;98709.66;;;30.27;64.00
13767;BME280;47980;48.794;9.176;2023-08-20T08:54:06;98710.25;;;30.21;64.78
13767;BME280;47980;48.794;9.176;2023-08-20T08:56:39;98715.03;;;30.17;64.82
13767;BME280;47980;48.794;9.176;2023-08-20T08:59:10;98723.47;;;30.10;65.87
13767;BME280;47980;48.794;9.176;2023-08-20T09:01:42;98723.19;;;29.70;66.58
13767;BME280;47980;48.794;9.176;2023-08-20T09:04:14;98723.09;;;29.61;67.07
13767;BME280;47980;48.794;9.176;2023-08-20T09:06:48;98719.00;;;30.04;65.14
13767;BME280;47980;48.794;9.176;2023-08-20T09:09:21;98716.81;;;30.11;65.75
13767;BME280;47980;48.794;9.176;2023-08-20T09:11:53;98717.53;;;30.25;63.37
13767;BME280;47980;48.794;9.176;2023-08-20T09:14:28;98718.81;;;29.85;65.21
13767;BME280;47980;48.794;9.176;2023-08-20T09:17:01;98719.63;;;30.20;64.69
13767;BME280;47980;48.794;9.176;2023-08-20T09:19:36;98719.28;;;30.31;63.68
13767;BME280;47980;48.794;9.176;2023-08-20T09:22:11;98725.19;;;30.64;63.28
13767;BME280;47980;48.794;9.176;2023-08-20T09:24:46;98720.91;;;30.98;60.31
13767;BME280;47980;48.794;9.176;2023-08-20T09:27:18;98732.94;;;30.44;62.74
13767;BME280;47980;48.794;9.176;2023-08-20T09:29:51;98720.19;;;31.07;60.67
13767;BME280;47980;48.794;9.176;2023-08-20T09:32:27;98718.56;;;31.18;59.82
13767;BME280;47980;48.794;9.176;2023-08-20T09:34:58;98721.38;;;31.28;58.56
13767;BME280;47980;48.794;9.176;2023-08-20T09:37:32;98716.63;;;31.50;57.38
13767;BME280;47980;48.794;9.176;2023-08-20T09:40:05;98717.06;;;31.49;57.19
13767;BME280;47980;48.794;9.176;2023-08-20T09:42:36;98710.50;;;31.46;57.30
13767;BME280;47980;48.794;9.176;2023-08-20T09:45:09;98722.31;;;31.65;57.71
13767;BME280;47980;48.794;9.176;2023-08-20T09:47:42;98719.13;;;31.76;55.75
13767;BME280;47980;48.794;9.176;2023-08-20T09:50:18;98729.16;;;31.60;56.82
13767;BME280;47980;48.794;9.176;2023-08-20T09:52:57;98737.53;;;31.57;56.73
13767;BME280;47980;48.794;9.176;2023-08-20T09:55:32;98734.25;;;31.40;56.02
13767;BME280;47980;48.794;9.176;2023-08-20T09:58:05;98726.53;;;31.26;58.11
13767;BME280;47980;48.794;9.176;2023-08-20T10:00:38;98714.88;;;31.75;56.01
13767;BME280;47980;48.794;9.176;2023-08-20T10:03:10;98718.13;;;31.51;56.87
13767;BME280;47980;48.794;9.176;2023-08-20T10:05:41;98721.56;;;31.33;56.28
13767;BME280;47980;48.794;9.176;2023-08-20T10:08:15;98716.06;;;31.33;56.14
13767;BME280;47980;48.794;9.176;2023-08-20T10:10:47;98709.38;;;31.34;56.78
13767;BME280;47980;48.794;9.176;2023-08-20T10:13:18;98700.38;;;31.74;55.36
13767;BME280;47980;48.794;9.176;2023-08-20T10:15:50;98708.16;;;31.67;57.54
13767;BME280;47980;48.794;9.176;2023-08-20T10:18:22;98707.63;;;31.90;55.46
13767;BME280;47980;48.794;9.176;2023-08-20T10:20:57;98708.22;;;31.94;54.19
13767;BME280;47980;48.794;9.176;2023-08-20T10:23:30;98715.38;;;31.92;55.66
13767;BME280;47980;48.794;9.176;2023-08-20T10:26:10;98708.34;;;31.19;56.85
13767;BME280;47980;48.794;9.176;2023-08-20T10:28:42;98708.84;;;31.89;55.88
13767;BME280;47980;48.794;9.176;2023-08-20T10:31:16;98711.31;;;32.24;54.63
13767;BME280;47980;48.794;9.176;2023-08-20T10:33:50;98701.25;;;32.30;53.15
13767;BME280;47980;48.794;9.176;2023-08-20T10:36:22;98698.69;;;32.72;53.67
13767;BME280;47980;48.794;9.176;2023-08-20T10:39:04;98714.53;;;32.22;52.19
13767;BME280;47980;48.794;9.176;2023-08-20T10:41:36;98702.53;;;31.79;53.87
13767;BME280;47980;48.794;9.176;2023-08-20T10:44:07;98708.84;;;31.98;53.57
13767;BME280;47980;48.794;9.176;2023-08-20T10:46:49;98700.06;;;31.72;52.32
13767;BME280;47980;48.794;9.176;2023-08-20T10:49:21;98712.78;;;31.88;52.93
13767;BME280;47980;48.794;9.176;2023-08-20T10:51:53;98708.69;;;32.02;52.76
13767;BME280;47980;48.794;9.176;2023-08-20T10:54:28;98708.28;;;32.22;53.94
13767;BME280;47980;48.794;9.176;2023-08-20T10:57:00;98703.88;;;32.52;53.08
13767;BME280;47980;48.794;9.176;2023-08-20T10:59:32;98702.31;;;32.88;51.42
13767;BME280;47980;48.794;9.176;2023-08-20T11:02:07;98703.72;;;32.83;52.00
13767;BME280;47980;48.794;9.176;2023-08-20T11:04:43;98700.25;;;33.25;50.22
13767;BME280;47980;48.794;9.176;2023-08-20T11:07:17;98684.84;;;33.18;50.28
13767;BME280;47980;48.794;9.176;2023-08-20T11:09:50;98687.31;;;33.07;49.56
13767;BME280;47980;48.794;9.176;2023-08-20T11:12:23;98698.03;;;32.13;50.92
13767;BME280;47980;48.794;9.176;2023-08-20T11:15:00;98686.63;;;32.42;51.00
13767;BME280;47980;48.794;9.176;2023-08-20T11:17:31;98689.22;;;32.73;49.69
13767;BME280;47980;48.794;9.176;2023-08-20T11:20:03;98681.59;;;32.50;49.63
13767;BME280;47980;48.794;9.176;2023-08-20T11:22:38;98695.44;;;32.09;51.37
13767;BME280;47980;48.794;9.176;2023-08-20T11:25:12;98688.75;;;32.10;51.24
13767;BME280;47980;48.794;9.176;2023-08-20T11:27:44;98682.66;;;32.25;51.89
13767;BME280;47980;48.794;9.176;2023-08-20T11:30:15;98687.19;;;32.00;51.21
13767;BME280;47980;48.794;9.176;2023-08-20T11:32:47;98679.28;;;32.39;51.50
13767;BME280;47980;48.794;9.176;2023-08-20T11:35:23;98681.59;;;32.41;50.68
13767;BME280;47980;48.794;9.176;2023-08-20T11:37:55;98684.66;;;32.52;49.89
13767;BME280;47980;48.794;9.176;2023-08-20T11:40:28;98674.69;;;32.27;51.54
13767;BME280;47980;48.794;9.176;2023-08-20T11:43:00;98677.56;;;32.78;49.94
13767;BME280;47980;48.794;9.176;2023-08-20T11:45:32;98671.03;;;32.67;50.01
13767;BME280;47980;48.794;9.176;2023-08-20T11:48:03;98676.66;;;32.81;50.05
13767;BME280;47980;48.794;9.176;2023-08-20T11:50:35;98681.41;;;32.90;50.60
13767;BME280;47980;48.794;9.176;2023-08-20T11:53:08;98676.09;;;32.50;50.44
13767;BME280;47980;48.794;9.176;2023-08-20T11:55:42;98673.50;;;32.65;49.97
13767;BME280;47980;48.794;9.176;2023-08-20T11:58:13;98676.41;;;32.43;49.56
13767;BME280;47980;48.794;9.176;2023-08-20T12:00:48;98671.81;;;32.49;49.60
13767;BME280;47980;48.794;9.176;2023-08-20T12:03:20;98671.78;;;32.76;49.22
13767;BME280;47980;48.794;9.176;2023-08-20T12:05:52;98666.28;;;32.95;48.76
13767;BME280;47980;48.794;9.176;2023-08-20T12:08:23;98667.38;;;33.30;47.82
13767;BME280;47980;48.794;9.176;2023-08-20T12:11:01;98660.28;;;33.05;47.87
13767;BME280;47980;48.794;9.176;2023-08-20T12:13:33;98656.41;;;33.21;48.00
13767;BME280;47980;48.794;9.176;2023-08-20T12:16:04;98659.88;;;32.79;49.48
13767;BME280;47980;48.794;9.176;2023-08-20T12:18:36;98657.88;;;32.98;48.31
13767;BME280;47980;48.794;9.176;2023-08-20T12:21:07;98658.38;;;32.69;49.33
13767;BME280;47980;48.794;9.176;2023-08-20T12:23:39;98661.50;;;33.04;49.03
13767;BME280;47980;48.794;9.176;2023-08-20T12:26:12;98657.56;;;32.78;47.55
13767;BME280;47980;48.794;9.176;2023-08-20T12:28:43;98653.66;;;33.21;47.72
13767;BME280;47980;48.794;9.176;2023-08-20T12:31:15;98655.00;;;33.26;46.69
13767;BME280;47980;48.794;9.176;2023-08-20T12:33:46;98653.31;;;33.28;47.30
13767;BME280;47980;48.794;9.176;2023-08-20T12:36:18;98649.84;;;33.19;46.67
13767;BME280;47980;48.794;9.176;2023-08-20T12:38:49;98656.44;;;33.12;46.72
13767;BME280;47980;48.794;9.176;2023-08-20T12:41:22;98650.94;;;33.12;47.33
13767;BME280;47980;48.794;9.176;2023-08-20T12:43:54;98640.47;;;33.35;47.47
13767;BME280;47980;48.794;9.176;2023-08-20T12:46:25;98637.72;;;33.25;47.58
13767;BME280;47980;48.794;9.176;2023-08-20T12:48:57;98642.31;;;33.86;46.04
13767;BME280;47980;48.794;9.176;2023-08-20T12:51:28;98636.09;;;33.76;45.93
13767;BME280;47980;48.794;9.176;2023-08-20T12:54:00;98635.28;;;34.09;45.30
13767;BME280;47980;48.794;9.176;2023-08-20T12:56:33;98628.97;;;34.17;44.86
13767;BME280;47980;48.794;9.176;2023-08-20T12:59:05;98625.81;;;33.86;45.48
13767;BME280;47980;48.794;9.176;2023-08-20T13:01:36;98626.72;;;33.59;46.77
13767;BME280;47980;48.794;9.176;2023-08-20T13:04:09;98629.56;;;33.49;46.89
13767;BME280;47980;48.794;9.176;2023-08-20T13:06:41;98619.94;;;33.69;45.92
13767;BME280;47980;48.794;9.176;2023-08-20T13:09:13;98620.56;;;33.88;46.12
13767;BME280;47980;48.794;9.176;2023-08-20T13:11:47;98618.25;;;33.71;45.38
13767;BME280;47980;48.794;9.176;2023-08-20T13:14:19;98615.31;;;33.51;46.42
13767;BME280;47980;48.794;9.176;2023-08-20T13:16:52;98621.13;;;33.53;45.70
13767;BME280;47980;48.794;9.176;2023-08-20T13:19:23;98627.78;;;33.28;47.37
13767;BME280;47980;48.794;9.176;2023-08-20T13:21:55;98622.28;;;33.28;46.14
13767;BME280;47980;48.794;9.176;2023-08-20T13:24:26;98617.59;;;33.76;45.07